sensor_id;sensor_type;location;lat;lon;timestamp;pressure;altitude;pressure_sealevel;temperature;humidity
6464;BME280;3265;42.694;23.282;2023-10-09T00:01:26;72143.56;;;-143.21;53.77
6464;BME280;3265;42.694;23.282;2023-10-09T00:03:52;72131.69;;;-143.21;53.65
6464;BME280;3265;42.694;23.282;2023-10-09T00:06:21;72133.66;;;-143.21;53.61
6464;BME280;3265;42.694;23.282;2023-10-09T00:08:57;72155.47;;;-143.21;54.04
6464;BME280;3265;42.694;23.282;2023-10-09T00:11:37;72161.41;;;-143.21;54.16
6464;BME280;3265;42.694;23.282;2023-10-09T00:14:08;72161.41;;;-143.21;54.21
6464;BME280;3265;42.694;23.282;2023-10-09T00:16:36;72163.41;;;-143.21;54.24
6464;BME280;3265;42.694;23.282;2023-10-09T00:19:09;72161.41;;;-143.21;53.98
6464;BME280;3265;42.694;23.282;2023-10-09T00:21:45;72167.38;;;-143.21;54.22
6464;BME280;3265;42.694;23.282;2023-10-09T00:24:12;72185.22;;;-143.21;54.80
6464;BME280;3265;42.694;23.282;2023-10-09T00:26:49;72193.16;;;-143.21;54.85
6464;BME280;3265;42.694;23.282;2023-10-09T00:29:18;72195.13;;;-143.21;54.83
6464;BME280;3265;42.694;23.282;2023-10-09T00:31:51;72197.13;;;-143.21;54.93
6464;BME280;3265;42.694;23.282;2023-10-09T00:34:22;72211.00;;;-143.21;55.16
6464;BME280;3265;42.694;23.282;2023-10-09T00:36:52;72211.00;;;-143.21;55.22
6464;BME280;3265;42.694;23.282;2023-10-09T00:39:19;72212.97;;;-143.21;55.24
6464;BME280;3265;42.694;23.282;2023-10-09T00:42:06;72220.91;;;-143.21;55.22
6464;BME280;3265;42.694;23.282;2023-10-09T00:44:35;72216.94;;;-143.21;55.19
6464;BME280;3265;42.694;23.282;2023-10-09T00:47:06;72224.88;;;-143.21;55.21
6464;BME280;3265;42.694;23.282;2023-10-09T00:49:47;72230.81;;;-143.21;55.32
6464;BME280;3265;42.694;23.282;2023-10-09T00:52:16;72240.75;;;-143.21;55.64
6464;BME280;3265;42.694;23.282;2023-10-09T00:54:53;72254.63;;;-143.21;55.37
6464;BME280;3265;42.694;23.282;2023-10-09T00:57:28;72264.53;;;-143.21;55.58
6464;BME280;3265;42.694;23.282;2023-10-09T00:59:59;72262.56;;;-143.21;55.67
6464;BME280;3265;42.694;23.282;2023-10-09T01:02:38;72266.53;;;-143.21;55.28
6464;BME280;3265;42.694;23.282;2023-10-09T01:05:09;72270.50;;;-143.21;55.20
6464;BME280;3265;42.694;23.282;2023-10-09T01:07:47;72282.38;;;-143.21;55.57
6464;BME280;3265;42.694;23.282;2023-10-09T01:10:15;72320.06;;;-143.21;55.98
6464;BME280;3265;42.694;23.282;2023-10-09T01:12:44;72343.88;;;-143.21;55.88
6464;BME280;3265;42.694;23.282;2023-10-09T01:15:15;72351.78;;;-143.21;55.90
6464;BME280;3265;42.694;23.282;2023-10-09T01:18:02;72359.72;;;-143.21;55.87
6464;BME280;3265;42.694;23.282;2023-10-09T01:20:30;72359.72;;;-143.21;55.60
6464;BME280;3265;42.694;23.282;2023-10-09T01:23:10;72351.78;;;-143.21;55.51
6464;BME280;3265;42.694;23.282;2023-10-09T01:25:37;72363.69;;;-143.21;55.60
6464;BME280;3265;42.694;23.282;2023-10-09T01:28:15;72383.53;;;-143.21;55.82
6464;BME280;3265;42.694;23.282;2023-10-09T01:30:45;72387.50;;;-143.21;55.82
6464;BME280;3265;42.694;23.282;2023-10-09T01:33:12;72391.47;;;-143.21;55.89
6464;BME280;3265;42.694;23.282;2023-10-09T01:35:44;72417.25;;;-143.21;56.29
6464;BME280;3265;42.694;23.282;2023-10-09T01:38:17;72419.22;;;-143.21;56.47
6464;BME280;3265;42.694;23.282;2023-10-09T01:40:44;72429.16;;;-143.21;56.67
6464;BME280;3265;42.694;23.282;2023-10-09T01:43:17;72423.19;;;-143.21;56.35
6464;BME280;3265;42.694;23.282;2023-10-09T01:45:44;72443.03;;;-143.21;56.82
6464;BME280;3265;42.694;23.282;2023-10-09T01:48:12;72448.97;;;-143.21;56.43
6464;BME280;3265;42.694;23.282;2023-10-09T01:50:48;72448.97;;;-143.21;56.24
6464;BME280;3265;42.694;23.282;2023-10-09T01:53:16;72484.66;;;-143.21;56.66
6464;BME280;3265;42.694;23.282;2023-10-09T01:55:48;72484.66;;;-143.21;56.79
6464;BME280;3265;42.694;23.282;2023-10-09T01:58:15;72486.66;;;-143.21;56.80
6464;BME280;3265;42.694;23.282;2023-10-09T02:00:50;72490.63;;;-143.21;56.55
6464;BME280;3265;42.694;23.282;2023-10-09T02:03:20;72492.59;;;-143.21;56.84
6464;BME280;3265;42.694;23.282;2023-10-09T02:05:50;72518.38;;;-143.21;56.98
6464;BME280;3265;42.694;23.282;2023-10-09T02:08:19;72526.31;;;-143.21;56.75
6464;BME280;3265;42.694;23.282;2023-10-09T02:10:52;72522.34;;;-143.21;56.72
6464;BME280;3265;42.694;23.282;2023-10-09T02:13:21;72522.34;;;-143.21;56.85
6464;BME280;3265;42.694;23.282;2023-10-09T02:15:56;72534.25;;;-143.21;56.66
6464;BME280;3265;42.694;23.282;2023-10-09T02:18:38;72554.09;;;-143.21;57.26
6464;BME280;3265;42.694;23.282;2023-10-09T02:21:18;72548.13;;;-143.21;57.15
6464;BME280;3265;42.694;23.282;2023-10-09T02:23:55;72560.03;;;-143.21;57.36
6464;BME280;3265;42.694;23.282;2023-10-09T02:26:23;72569.94;;;-143.21;57.50
6464;BME280;3265;42.694;23.282;2023-10-09T02:28:52;72571.94;;;-143.21;57.46
6464;BME280;3265;42.694;23.282;2023-10-09T02:31:24;72577.88;;;-143.21;57.55
6464;BME280;3265;42.694;23.282;2023-10-09T02:33:53;72591.78;;;-143.21;58.11
6464;BME280;3265;42.694;23.282;2023-10-09T02:36:21;72601.69;;;-143.21;58.61
6464;BME280;3265;42.694;23.282;2023-10-09T02:38:48;72609.63;;;-143.21;58.31
6464;BME280;3265;42.694;23.282;2023-10-09T02:41:15;72617.56;;;-143.21;58.48
6464;BME280;3265;42.694;23.282;2023-10-09T02:43:48;72637.38;;;-143.21;58.62
6464;BME280;3265;42.694;23.282;2023-10-09T02:46:17;72647.31;;;-143.21;59.00
6464;BME280;3265;42.694;23.282;2023-10-09T02:48:45;72645.31;;;-143.21;58.60
6464;BME280;3265;42.694;23.282;2023-10-09T02:51:16;72637.38;;;-143.21;58.47
6464;BME280;3265;42.694;23.282;2023-10-09T02:53:58;72661.19;;;-143.21;58.83
6464;BME280;3265;42.694;23.282;2023-10-09T02:56:35;72657.22;;;-143.21;59.00
6464;BME280;3265;42.694;23.282;2023-10-09T02:59:08;72657.22;;;-143.21;58.77
6464;BME280;3265;42.694;23.282;2023-10-09T03:01:39;72663.16;;;-143.21;58.63
6464;BME280;3265;42.694;23.282;2023-10-09T03:04:07;72669.13;;;-143.21;58.60
6464;BME280;3265;42.694;23.282;2023-10-09T03:06:36;72661.19;;;-143.21;58.59
6464;BME280;3265;42.694;23.282;2023-10-09T03:09:09;72698.88;;;-143.21;59.02
6464;BME280;3265;42.694;23.282;2023-10-09T03:11:45;72706.81;;;-143.21;59.05
6464;BME280;3265;42.694;23.282;2023-10-09T03:14:13;72720.69;;;-143.21;59.40
6464;BME280;3265;42.694;23.282;2023-10-09T03:16:41;72724.66;;;-143.21;59.42
6464;BME280;3265;42.694;23.282;2023-10-09T03:19:08;72738.53;;;-143.21;59.24
6464;BME280;3265;42.694;23.282;2023-10-09T03:21:36;72742.50;;;-143.21;59.27
6464;BME280;3265;42.694;23.282;2023-10-09T03:24:03;72742.50;;;-143.21;59.31
6464;BME280;3265;42.694;23.282;2023-10-09T03:26:32;72762.34;;;-143.21;59.31
6464;BME280;3265;42.694;23.282;2023-10-09T03:29:00;72758.38;;;-143.21;59.11
6464;BME280;3265;42.694;23.282;2023-10-09T03:31:32;72760.34;;;-143.21;58.91
6464;BME280;3265;42.694;23.282;2023-10-09T03:33:59;72774.25;;;-143.21;59.21
6464;BME280;3265;42.694;23.282;2023-10-09T03:36:26;72786.13;;;-143.21;59.13
6464;BME280;3265;42.694;23.282;2023-10-09T03:38:54;72807.97;;;-143.21;59.91
6464;BME280;3265;42.694;23.282;2023-10-09T03:41:23;72802.00;;;-143.21;59.65
6464;BME280;3265;42.694;23.282;2023-10-09T03:43:52;72802.00;;;-143.21;59.50
6464;BME280;3265;42.694;23.282;2023-10-09T03:46:21;72819.84;;;-143.21;59.40
6464;BME280;3265;42.694;23.282;2023-10-09T03:48:52;72811.94;;;-143.21;59.53
6464;BME280;3265;42.694;23.282;2023-10-09T03:51:22;72817.88;;;-143.21;59.37
6464;BME280;3265;42.694;23.282;2023-10-09T03:53:49;72815.88;;;-143.21;59.00
6464;BME280;3265;42.694;23.282;2023-10-09T03:56:18;72815.88;;;-143.21;58.90
6464;BME280;3265;42.694;23.282;2023-10-09T03:58:47;72813.91;;;-143.21;58.45
6464;BME280;3265;42.694;23.282;2023-10-09T04:01:16;72849.59;;;-143.21;58.95
6464;BME280;3265;42.694;23.282;2023-10-09T04:03:50;72873.41;;;-143.21;59.76
6464;BME280;3265;42.694;23.282;2023-10-09T04:06:20;72881.34;;;-143.21;59.63
6464;BME280;3265;42.694;23.282;2023-10-09T04:08:47;72897.22;;;-143.21;60.13
6464;BME280;3265;42.694;23.282;2023-10-09T04:11:16;72901.19;;;-143.21;59.81
6464;BME280;3265;42.694;23.282;2023-10-09T04:13:48;72891.25;;;-143.21;59.27
6464;BME280;3265;42.694;23.282;2023-10-09T04:16:15;72877.38;;;-143.21;59.04
6464;BME280;3265;42.694;23.282;2023-10-09T04:19:18;72875.41;;;-143.21;58.37
6464;BME280;3265;42.694;23.282;2023-10-09T04:21:47;72879.38;;;-143.21;58.08
6464;BME280;3265;42.694;23.282;2023-10-09T04:24:14;72883.31;;;-143.21;57.66
6464;BME280;3265;42.694;23.282;2023-10-09T04:26:50;72889.28;;;-143.21;57.71
6464;BME280;3265;42.694;23.282;2023-10-09T04:29:22;72905.16;;;-143.21;57.94
6464;BME280;3265;42.694;23.282;2023-10-09T04:32:04;72913.09;;;-143.21;58.23
6464;BME280;3265;42.694;23.282;2023-10-09T04:34:34;72930.94;;;-143.21;58.36
6464;BME280;3265;42.694;23.282;2023-10-09T04:37:01;72926.97;;;-143.21;58.18
6464;BME280;3265;42.694;23.282;2023-10-09T04:39:45;72938.88;;;-143.21;58.68
6464;BME280;3265;42.694;23.282;2023-10-09T04:42:26;72950.78;;;-143.21;58.42
6464;BME280;3265;42.694;23.282;2023-10-09T04:45:02;72946.81;;;-143.21;57.82
6464;BME280;3265;42.694;23.282;2023-10-09T04:47:47;72936.88;;;-143.21;57.64
6464;BME280;3265;42.694;23.282;2023-10-09T04:50:24;72930.94;;;-143.21;57.29
6464;BME280;3265;42.694;23.282;2023-10-09T04:53:24;72928.94;;;-143.21;57.02
6464;BME280;3265;42.694;23.282;2023-10-09T04:55:54;72923.00;;;-143.21;56.66
6464;BME280;3265;42.694;23.282;2023-10-09T04:58:20;72911.09;;;-143.21;55.76
6464;BME280;3265;42.694;23.282;2023-10-09T05:00:51;72909.13;;;-143.21;55.38
6464;BME280;3265;42.694;23.282;2023-10-09T05:03:30;72915.06;;;-143.21;55.03
6464;BME280;3265;42.694;23.282;2023-10-09T05:06:11;72934.91;;;-143.21;55.36
6464;BME280;3265;42.694;23.282;2023-10-09T05:09:09;72942.84;;;-143.21;55.23
6464;BME280;3265;42.694;23.282;2023-10-09T05:11:39;72944.81;;;-143.21;55.32
6464;BME280;3265;42.694;23.282;2023-10-09T05:14:41;72944.81;;;-143.21;55.59
6464;BME280;3265;42.694;23.282;2023-10-09T05:17:27;72932.91;;;-143.21;54.92
6464;BME280;3265;42.694;23.282;2023-10-09T05:19:53;72936.88;;;-143.21;54.53
6464;BME280;3265;42.694;23.282;2023-10-09T05:22:44;72938.88;;;-143.21;54.53
6464;BME280;3265;42.694;23.282;2023-10-09T05:25:23;72934.91;;;-143.21;54.51
6464;BME280;3265;42.694;23.282;2023-10-09T05:28:17;72944.81;;;-143.21;54.24
6464;BME280;3265;42.694;23.282;2023-10-09T05:31:14;72946.81;;;-143.21;53.65
6464;BME280;3265;42.694;23.282;2023-10-09T05:34:01;72956.72;;;-143.21;53.66
6464;BME280;3265;42.694;23.282;2023-10-09T05:36:28;72960.69;;;-143.21;53.38
6464;BME280;3265;42.694;23.282;2023-10-09T05:39:02;72958.69;;;-143.21;53.39
6464;BME280;3265;42.694;23.282;2023-10-09T05:41:45;72956.72;;;-143.21;53.39
6464;BME280;3265;42.694;23.282;2023-10-09T05:44:18;72960.69;;;-143.21;53.07
6464;BME280;3265;42.694;23.282;2023-10-09T05:47:04;72978.53;;;-143.21;53.53
6464;BME280;3265;42.694;23.282;2023-10-09T05:50:01;72976.56;;;-143.21;53.18
6464;BME280;3265;42.694;23.282;2023-10-09T05:52:45;72972.59;;;-143.21;53.26
6464;BME280;3265;42.694;23.282;2023-10-09T05:55:35;72968.63;;;-143.21;52.17
6464;BME280;3265;42.694;23.282;2023-10-09T05:58:20;72966.63;;;-143.21;52.09
6464;BME280;3265;42.694;23.282;2023-10-09T06:01:04;72970.59;;;-143.21;51.75
6464;BME280;3265;42.694;23.282;2023-10-09T06:03:48;72978.53;;;-143.21;51.31
6464;BME280;3265;42.694;23.282;2023-10-09T06:06:19;72980.53;;;-143.21;51.41
6464;BME280;3265;42.694;23.282;2023-10-09T06:09:00;72994.41;;;-143.21;51.31
6464;BME280;3265;42.694;23.282;2023-10-09T06:11:58;72994.41;;;-143.21;50.74
6464;BME280;3265;42.694;23.282;2023-10-09T06:14:42;72998.38;;;-143.21;50.33
6464;BME280;3265;42.694;23.282;2023-10-09T06:17:23;73008.28;;;-143.21;49.99
6464;BME280;3265;42.694;23.282;2023-10-09T06:19:52;73008.28;;;-143.21;50.07
6464;BME280;3265;42.694;23.282;2023-10-09T06:22:24;73000.34;;;-143.21;49.94
6464;BME280;3265;42.694;23.282;2023-10-09T06:25:11;72996.38;;;-143.21;49.80
6464;BME280;3265;42.694;23.282;2023-10-09T06:27:45;72994.41;;;-143.21;49.80
6464;BME280;3265;42.694;23.282;2023-10-09T06:30:24;72990.44;;;-143.21;49.81
6464;BME280;3265;42.694;23.282;2023-10-09T06:32:50;72984.50;;;-143.21;48.96
6464;BME280;3265;42.694;23.282;2023-10-09T06:35:23;72980.53;;;-143.21;49.02
6464;BME280;3265;42.694;23.282;2023-10-09T06:37:56;72970.59;;;-143.21;48.09
6464;BME280;3265;42.694;23.282;2023-10-09T06:40:40;72972.59;;;-143.21;47.70
6464;BME280;3265;42.694;23.282;2023-10-09T06:43:43;72976.56;;;-143.21;46.90
6464;BME280;3265;42.694;23.282;2023-10-09T06:46:15;72974.56;;;-143.21;47.64
6464;BME280;3265;42.694;23.282;2023-10-09T06:48:59;72962.66;;;-143.21;47.16
6464;BME280;3265;42.694;23.282;2023-10-09T06:51:41;72960.69;;;-143.21;47.53
6464;BME280;3265;42.694;23.282;2023-10-09T06:54:06;72948.78;;;-143.21;47.42
6464;BME280;3265;42.694;23.282;2023-10-09T06:56:35;72950.78;;;-143.21;46.77
6464;BME280;3265;42.694;23.282;2023-10-09T06:59:20;72940.84;;;-143.21;46.27
6464;BME280;3265;42.694;23.282;2023-10-09T07:01:49;72923.00;;;-143.21;45.38
6464;BME280;3265;42.694;23.282;2023-10-09T07:04:30;72926.97;;;-143.21;44.80
6464;BME280;3265;42.694;23.282;2023-10-09T07:07:24;72923.00;;;-143.21;44.93
6464;BME280;3265;42.694;23.282;2023-10-09T07:09:52;72913.09;;;-143.21;45.38
6464;BME280;3265;42.694;23.282;2023-10-09T07:12:36;72926.97;;;-143.21;45.11
6464;BME280;3265;42.694;23.282;2023-10-09T07:15:08;72930.94;;;-143.21;45.42
6464;BME280;3265;42.694;23.282;2023-10-09T07:17:52;72923.00;;;-143.21;45.32
6464;BME280;3265;42.694;23.282;2023-10-09T07:20:21;72923.00;;;-143.21;44.77
6464;BME280;3265;42.694;23.282;2023-10-09T07:23:05;72905.16;;;-143.21;43.77
6464;BME280;3265;42.694;23.282;2023-10-09T07:25:41;72901.19;;;-143.21;44.16
6464;BME280;3265;42.694;23.282;2023-10-09T07:28:21;72887.28;;;-143.21;43.94
6464;BME280;3265;42.694;23.282;2023-10-09T07:31:08;72891.25;;;-143.21;44.40
6464;BME280;3265;42.694;23.282;2023-10-09T07:33:50;72897.22;;;-143.21;43.22
6464;BME280;3265;42.694;23.282;2023-10-09T07:36:22;72893.25;;;-143.21;42.81
6464;BME280;3265;42.694;23.282;2023-10-09T07:39:01;72881.34;;;-143.21;43.22
6464;BME280;3265;42.694;23.282;2023-10-09T07:41:32;72867.47;;;-143.21;42.61
6464;BME280;3265;42.694;23.282;2023-10-09T07:44:09;72873.41;;;-143.21;42.09
6464;BME280;3265;42.694;23.282;2023-10-09T07:47:01;72871.44;;;-143.21;42.16
6464;BME280;3265;42.694;23.282;2023-10-09T07:49:42;72873.41;;;-143.21;42.05
6464;BME280;3265;42.694;23.282;2023-10-09T07:52:14;72855.56;;;-143.21;41.57
6464;BME280;3265;42.694;23.282;2023-10-09T07:54:43;72847.63;;;-143.21;40.66
6464;BME280;3265;42.694;23.282;2023-10-09T07:57:19;72831.75;;;-143.21;40.03
6464;BME280;3265;42.694;23.282;2023-10-09T07:59:51;72841.69;;;-143.21;39.75
6464;BME280;3265;42.694;23.282;2023-10-09T08:02:28;72839.69;;;-143.21;40.15
6464;BME280;3265;42.694;23.282;2023-10-09T08:05:01;72831.75;;;-143.21;40.04
6464;BME280;3265;42.694;23.282;2023-10-09T08:07:32;72813.91;;;-143.21;39.42
6464;BME280;3265;42.694;23.282;2023-10-09T08:10:04;72805.97;;;-143.21;39.40
6464;BME280;3265;42.694;23.282;2023-10-09T08:12:49;72798.03;;;-143.21;38.68
6464;BME280;3265;42.694;23.282;2023-10-09T08:15:25;72778.22;;;-143.21;38.28
6464;BME280;3265;42.694;23.282;2023-10-09T08:18:00;72772.25;;;-143.21;38.45
6464;BME280;3265;42.694;23.282;2023-10-09T08:20:36;72740.53;;;-143.21;37.83
6464;BME280;3265;42.694;23.282;2023-10-09T08:23:36;72734.56;;;-143.21;37.52
6464;BME280;3265;42.694;23.282;2023-10-09T08:26:16;72724.66;;;-143.21;36.92
6464;BME280;3265;42.694;23.282;2023-10-09T08:28:54;72732.59;;;-143.21;37.33
6464;BME280;3265;42.694;23.282;2023-10-09T08:31:41;72716.72;;;-143.21;37.10
6464;BME280;3265;42.694;23.282;2023-10-09T08:34:12;72704.81;;;-143.21;37.03
6464;BME280;3265;42.694;23.282;2023-10-09T08:36:50;72677.06;;;-143.21;36.89
6464;BME280;3265;42.694;23.282;2023-10-09T08:39:19;72655.25;;;-143.21;36.69
6464;BME280;3265;42.694;23.282;2023-10-09T08:41:54;72643.34;;;-143.21;36.63
6464;BME280;3265;42.694;23.282;2023-10-09T08:44:24;72609.63;;;-143.21;36.13
6464;BME280;3265;42.694;23.282;2023-10-09T08:46:54;72585.81;;;-143.21;35.78
6464;BME280;3265;42.694;23.282;2023-10-09T08:49:21;72564.00;;;-143.21;35.58
6464;BME280;3265;42.694;23.282;2023-10-09T08:51:48;72538.22;;;-143.21;34.79
6464;BME280;3265;42.694;23.282;2023-10-09T08:54:15;72500.53;;;-143.21;34.41
6464;BME280;3265;42.694;23.282;2023-10-09T08:56:42;72456.91;;;-143.21;33.61
6464;BME280;3265;42.694;23.282;2023-10-09T08:59:16;72441.03;;;-143.21;33.26
6464;BME280;3265;42.694;23.282;2023-10-09T09:01:45;72423.19;;;-143.21;32.60
6464;BME280;3265;42.694;23.282;2023-10-09T09:04:36;72397.41;;;-143.21;31.67
6464;BME280;3265;42.694;23.282;2023-10-09T09:07:04;72357.75;;;-143.21;31.36
6464;BME280;3265;42.694;23.282;2023-10-09T09:09:31;72357.75;;;-143.21;31.20
6464;BME280;3265;42.694;23.282;2023-10-09T09:11:59;72343.88;;;-143.21;31.36
6464;BME280;3265;42.694;23.282;2023-10-09T09:14:37;72316.09;;;-143.21;30.28
6464;BME280;3265;42.694;23.282;2023-10-09T09:17:04;72276.44;;;-143.21;30.78
6464;BME280;3265;42.694;23.282;2023-10-09T09:19:36;72236.78;;;-143.21;30.43
6464;BME280;3265;42.694;23.282;2023-10-09T09:22:04;72187.19;;;-143.21;29.76
6464;BME280;3265;42.694;23.282;2023-10-09T09:24:38;72133.66;;;-143.21;29.42
6464;BME280;3265;42.694;23.282;2023-10-09T09:27:11;72121.75;;;-143.21;28.34
6464;BME280;3265;42.694;23.282;2023-10-09T09:29:45;72177.28;;;-143.21;28.97
6464;BME280;3265;42.694;23.282;2023-10-09T09:32:27;72185.22;;;-143.21;29.69
6464;BME280;3265;42.694;23.282;2023-10-09T09:35:02;72119.78;;;-143.21;29.38
6464;BME280;3265;42.694;23.282;2023-10-09T09:37:31;72050.38;;;-143.21;28.52
6464;BME280;3265;42.694;23.282;2023-10-09T09:40:16;72024.59;;;-143.21;27.87
6464;BME280;3265;42.694;23.282;2023-10-09T09:42:56;72026.56;;;-143.21;27.78
6464;BME280;3265;42.694;23.282;2023-10-09T09:45:32;72000.78;;;-143.21;27.45
6464;BME280;3265;42.694;23.282;2023-10-09T09:48:02;72010.72;;;-143.21;27.04
6464;BME280;3265;42.694;23.282;2023-10-09T09:50:31;71957.16;;;-143.21;27.14
6464;BME280;3265;42.694;23.282;2023-10-09T09:52:58;71923.47;;;-143.21;26.81
6464;BME280;3265;42.694;23.282;2023-10-09T09:55:33;71903.63;;;-143.21;26.49
6464;BME280;3265;42.694;23.282;2023-10-09T09:58:01;71935.34;;;-143.21;26.49
6464;BME280;3265;42.694;23.282;2023-10-09T10:00:33;71875.88;;;-143.21;26.58
6464;BME280;3265;42.694;23.282;2023-10-09T10:03:11;71792.59;;;-143.21;25.97
6464;BME280;3265;42.694;23.282;2023-10-09T10:05:41;71737.06;;;-143.21;25.34
6464;BME280;3265;42.694;23.282;2023-10-09T10:08:15;71717.25;;;-143.21;25.01
6464;BME280;3265;42.694;23.282;2023-10-09T10:10:46;71705.34;;;-143.21;24.97
6464;BME280;3265;42.694;23.282;2023-10-09T10:13:20;71711.28;;;-143.21;24.63
6464;BME280;3265;42.694;23.282;2023-10-09T10:16:08;71691.47;;;-143.21;24.45
6464;BME280;3265;42.694;23.282;2023-10-09T10:18:55;71665.69;;;-143.21;24.14
6464;BME280;3265;42.694;23.282;2023-10-09T10:21:25;71661.72;;;-143.21;24.24
6464;BME280;3265;42.694;23.282;2023-10-09T10:27:17;71592.31;;;-143.21;24.32
6464;BME280;3265;42.694;23.282;2023-10-09T10:32:56;71562.59;;;-143.21;24.06
6464;BME280;3265;42.694;23.282;2023-10-09T10:35:24;71602.25;;;-143.21;24.63
6464;BME280;3265;42.694;23.282;2023-10-09T10:38:22;71600.25;;;-143.21;24.61
6464;BME280;3265;42.694;23.282;2023-10-09T10:40:48;71568.53;;;-143.21;24.87
6464;BME280;3265;42.694;23.282;2023-10-09T10:43:23;71513.03;;;-143.21;24.26
6464;BME280;3265;42.694;23.282;2023-10-09T10:46:01;71479.31;;;-143.21;24.74
6464;BME280;3265;42.694;23.282;2023-10-09T10:48:35;71459.47;;;-143.21;24.53
6464;BME280;3265;42.694;23.282;2023-10-09T10:51:04;71405.94;;;-143.21;24.53
6464;BME280;3265;42.694;23.282;2023-10-09T10:53:31;71384.16;;;-143.21;23.85
6464;BME280;3265;42.694;23.282;2023-10-09T10:56:13;71374.22;;;-143.21;23.81
6464;BME280;3265;42.694;23.282;2023-10-09T10:58:52;71378.19;;;-143.21;24.17
6464;BME280;3265;42.694;23.282;2023-10-09T11:01:37;71366.31;;;-143.21;24.15
6464;BME280;3265;42.694;23.282;2023-10-09T11:04:21;71396.03;;;-143.21;24.19
6464;BME280;3265;42.694;23.282;2023-10-09T11:07:08;71366.31;;;-143.21;23.93
6464;BME280;3265;42.694;23.282;2023-10-09T11:09:44;71316.75;;;-143.21;23.79
6464;BME280;3265;42.694;23.282;2023-10-09T11:12:26;71239.41;;;-143.21;23.53
6464;BME280;3265;42.694;23.282;2023-10-09T11:15:04;71233.47;;;-143.21;23.21
6464;BME280;3265;42.694;23.282;2023-10-09T11:17:44;71168.06;;;-143.21;23.08
6464;BME280;3265;42.694;23.282;2023-10-09T11:20:13;71122.44;;;-143.21;22.93
6464;BME280;3265;42.694;23.282;2023-10-09T11:22:50;71059.00;;;-143.21;22.38
6464;BME280;3265;42.694;23.282;2023-10-09T11:25:42;71013.41;;;-143.21;22.64
6464;BME280;3265;42.694;23.282;2023-10-09T11:28:17;71009.44;;;-143.21;22.33
6464;BME280;3265;42.694;23.282;2023-10-09T11:30:58;71019.38;;;-143.21;22.06
6464;BME280;3265;42.694;23.282;2023-10-09T11:33:42;71078.84;;;-143.21;22.04
6464;BME280;3265;42.694;23.282;2023-10-09T11:36:11;71094.69;;;-143.21;22.38
6464;BME280;3265;42.694;23.282;2023-10-09T11:38:37;71112.53;;;-143.21;22.63
6464;BME280;3265;42.694;23.282;2023-10-09T11:41:12;71096.69;;;-143.21;22.40
6464;BME280;3265;42.694;23.282;2023-10-09T11:43:48;71102.63;;;-143.21;22.79
6464;BME280;3265;42.694;23.282;2023-10-09T11:46:19;71152.19;;;-143.21;22.70
6464;BME280;3265;42.694;23.282;2023-10-09T11:49:07;71164.09;;;-143.21;22.96
6464;BME280;3265;42.694;23.282;2023-10-09T11:52:05;71116.50;;;-143.21;22.96
6464;BME280;3265;42.694;23.282;2023-10-09T11:54:48;71082.81;;;-143.21;22.70
6464;BME280;3265;42.694;23.282;2023-10-09T11:57:15;71033.25;;;-143.21;22.52
6464;BME280;3265;42.694;23.282;2023-10-09T11:59:43;71023.34;;;-143.21;22.32
6464;BME280;3265;42.694;23.282;2023-10-09T12:02:10;71003.50;;;-143.21;22.29
6464;BME280;3265;42.694;23.282;2023-10-09T12:04:38;70977.72;;;-143.21;21.89
6464;BME280;3265;42.694;23.282;2023-10-09T12:07:09;70967.81;;;-143.21;22.22
6464;BME280;3265;42.694;23.282;2023-10-09T12:09:36;70963.84;;;-143.21;22.31
6464;BME280;3265;42.694;23.282;2023-10-09T12:12:05;70967.81;;;-143.21;21.87
6464;BME280;3265;42.694;23.282;2023-10-09T12:14:32;70924.22;;;-143.21;22.07
6464;BME280;3265;42.694;23.282;2023-10-09T12:17:03;70900.41;;;-143.21;21.22
6464;BME280;3265;42.694;23.282;2023-10-09T12:19:32;70900.41;;;-143.21;21.80
6464;BME280;3265;42.694;23.282;2023-10-09T12:21:59;70886.53;;;-143.21;21.46
6464;BME280;3265;42.694;23.282;2023-10-09T12:24:28;70910.34;;;-143.21;21.08
6464;BME280;3265;42.694;23.282;2023-10-09T12:26:55;70894.47;;;-143.21;20.97
6464;BME280;3265;42.694;23.282;2023-10-09T12:29:23;70880.59;;;-143.21;20.80
6464;BME280;3265;42.694;23.282;2023-10-09T12:31:54;70872.66;;;-143.21;20.99
6464;BME280;3265;42.694;23.282;2023-10-09T12:34:24;70854.84;;;-143.21;20.74
6464;BME280;3265;42.694;23.282;2023-10-09T12:36:52;70827.06;;;-143.21;20.53
6464;BME280;3265;42.694;23.282;2023-10-09T12:39:19;70801.31;;;-143.21;20.65
6464;BME280;3265;42.694;23.282;2023-10-09T12:41:48;70860.78;;;-143.21;20.78
6464;BME280;3265;42.694;23.282;2023-10-09T12:44:19;70983.69;;;-143.21;21.38
6464;BME280;3265;42.694;23.282;2023-10-09T12:46:46;70934.13;;;-143.21;21.55
6464;BME280;3265;42.694;23.282;2023-10-09T12:49:18;70870.69;;;-143.21;21.49
6464;BME280;3265;42.694;23.282;2023-10-09T12:51:50;70801.31;;;-143.21;21.20
6464;BME280;3265;42.694;23.282;2023-10-09T12:54:18;70716.06;;;-143.21;20.77
6464;BME280;3265;42.694;23.282;2023-10-09T12:56:50;70613.00;;;-143.21;20.53
6464;BME280;3265;42.694;23.282;2023-10-09T12:59:17;70587.22;;;-143.21;20.26
6464;BME280;3265;42.694;23.282;2023-10-09T13:01:45;70595.16;;;-143.21;20.33
6464;BME280;3265;42.694;23.282;2023-10-09T13:04:18;70543.63;;;-143.21;20.05
6464;BME280;3265;42.694;23.282;2023-10-09T13:06:48;70468.31;;;-143.21;19.73
6464;BME280;3265;42.694;23.282;2023-10-09T13:09:18;70448.47;;;-143.21;19.51
6464;BME280;3265;42.694;23.282;2023-10-09T13:11:51;70412.81;;;-143.21;19.36
6464;BME280;3265;42.694;23.282;2023-10-09T13:14:18;70383.06;;;-143.21;19.37
6464;BME280;3265;42.694;23.282;2023-10-09T13:16:47;70416.78;;;-143.21;19.31
6464;BME280;3265;42.694;23.282;2023-10-09T13:19:16;70402.91;;;-143.21;19.29
6464;BME280;3265;42.694;23.282;2023-10-09T13:21:43;70412.81;;;-143.21;19.20
6464;BME280;3265;42.694;23.282;2023-10-09T13:24:10;70404.88;;;-143.21;19.25
6464;BME280;3265;42.694;23.282;2023-10-09T13:26:41;70432.63;;;-143.21;19.04
6464;BME280;3265;42.694;23.282;2023-10-09T13:29:12;70434.59;;;-143.21;19.20
6464;BME280;3265;42.694;23.282;2023-10-09T13:31:39;70375.16;;;-143.21;18.63
6464;BME280;3265;42.694;23.282;2023-10-09T13:34:12;70410.81;;;-143.21;18.56